sensor_id;sensor_type;location;lat;lon;timestamp;P1;durP1;ratioP1;P2;durP2;ratioP2
16660;SDS011;8444;52.012;5.048;2023-08-20T00:01:44;5.47;;;1.83;;
16660;SDS011;8444;52.012;5.048;2023-08-20T00:04:09;7.18;;;2.35;;
16660;SDS011;8444;52.012;5.048;2023-08-20T00:06:35;5.65;;;2.00;;
16660;SDS011;8444;52.012;5.048;2023-08-20T00:09:00;6.30;;;2.13;;
16660;SDS011;8444;52.012;5.048;2023-08-20T00:11:25;8.02;;;1.77;;
16660;SDS011;8444;52.012;5.048;2023-08-20T00:13:51;6.47;;;2.00;;
16660;SDS011;8444;52.012;5.048;2023-08-20T00:16:16;3.33;;;1.95;;
16660;SDS011;8444;52.012;5.048;2023-08-20T00:18:41;5.88;;;2.72;;
16660;SDS011;8444;52.012;5.048;2023-08-20T00:21:07;8.20;;;2.30;;
16660;SDS011;8444;52.012;5.048;2023-08-20T00:23:33;7.88;;;2.08;;
16660;SDS011;8444;52.012;5.048;2023-08-20T00:25:58;3.55;;;1.85;;
16660;SDS011;8444;52.012;5.048;2023-08-20T00:28:24;7.00;;;3.08;;
16660;SDS011;8444;52.012;5.048;2023-08-20T00:30:49;9.43;;;2.40;;
16660;SDS011;8444;52.012;5.048;2023-08-20T00:33:14;10.98;;;2.63;;
16660;SDS011;8444;52.012;5.048;2023-08-20T00:35:40;5.93;;;2.17;;
16660;SDS011;8444;52.012;5.048;2023-08-20T00:38:05;13.07;;;3.83;;
16660;SDS011;8444;52.012;5.048;2023-08-20T00:40:30;7.32;;;3.13;;
16660;SDS011;8444;52.012;5.048;2023-08-20T00:42:56;6.55;;;3.30;;
16660;SDS011;8444;52.012;5.048;2023-08-20T00:45:21;7.25;;;2.92;;
16660;SDS011;8444;52.012;5.048;2023-08-20T00:47:47;6.05;;;2.80;;
16660;SDS011;8444;52.012;5.048;2023-08-20T00:50:12;6.18;;;3.28;;
16660;SDS011;8444;52.012;5.048;2023-08-20T00:52:37;6.53;;;3.53;;
16660;SDS011;8444;52.012;5.048;2023-08-20T00:55:06;7.05;;;3.13;;
16660;SDS011;8444;52.012;5.048;2023-08-20T00:57:32;10.32;;;3.65;;
16660;SDS011;8444;52.012;5.048;2023-08-20T00:59:57;9.88;;;3.90;;
16660;SDS011;8444;52.012;5.048;2023-08-20T01:02:22;8.73;;;3.35;;
16660;SDS011;8444;52.012;5.048;2023-08-20T01:04:48;10.25;;;3.60;;
16660;SDS011;8444;52.012;5.048;2023-08-20T01:07:24;7.57;;;3.75;;
16660;SDS011;8444;52.012;5.048;2023-08-20T01:12:20;11.68;;;3.60;;
16660;SDS011;8444;52.012;5.048;2023-08-20T01:14:47;6.90;;;3.58;;
16660;SDS011;8444;52.012;5.048;2023-08-20T01:17:12;6.93;;;3.78;;
16660;SDS011;8444;52.012;5.048;2023-08-20T01:19:38;7.63;;;3.40;;
16660;SDS011;8444;52.012;5.048;2023-08-20T01:29:40;9.20;;;2.85;;
16660;SDS011;8444;52.012;5.048;2023-08-20T01:32:06;5.57;;;3.28;;
16660;SDS011;8444;52.012;5.048;2023-08-20T01:34:32;8.15;;;3.08;;
16660;SDS011;8444;52.012;5.048;2023-08-20T01:36:57;11.45;;;3.50;;
16660;SDS011;8444;52.012;5.048;2023-08-20T01:39:22;7.00;;;3.13;;
16660;SDS011;8444;52.012;5.048;2023-08-20T01:41:48;12.05;;;3.53;;
16660;SDS011;8444;52.012;5.048;2023-08-20T01:44:13;8.20;;;3.38;;
16660;SDS011;8444;52.012;5.048;2023-08-20T01:46:38;5.93;;;3.10;;
16660;SDS011;8444;52.012;5.048;2023-08-20T01:49:04;5.72;;;3.00;;
16660;SDS011;8444;52.012;5.048;2023-08-20T01:51:29;9.00;;;3.50;;
16660;SDS011;8444;52.012;5.048;2023-08-20T01:53:54;7.30;;;3.47;;
16660;SDS011;8444;52.012;5.048;2023-08-20T01:56:19;8.68;;;3.70;;
16660;SDS011;8444;52.012;5.048;2023-08-20T01:58:45;6.32;;;3.40;;
16660;SDS011;8444;52.012;5.048;2023-08-20T02:01:10;5.47;;;3.80;;
16660;SDS011;8444;52.012;5.048;2023-08-20T02:03:35;8.00;;;3.78;;
16660;SDS011;8444;52.012;5.048;2023-08-20T02:06:01;11.75;;;3.60;;
16660;SDS011;8444;52.012;5.048;2023-08-20T02:08:26;11.13;;;4.18;;
16660;SDS011;8444;52.012;5.048;2023-08-20T02:10:59;7.32;;;3.42;;
16660;SDS011;8444;52.012;5.048;2023-08-20T02:13:24;9.77;;;4.15;;
16660;SDS011;8444;52.012;5.048;2023-08-20T02:15:56;9.43;;;4.00;;
16660;SDS011;8444;52.012;5.048;2023-08-20T02:18:22;10.00;;;3.90;;
16660;SDS011;8444;52.012;5.048;2023-08-20T02:20:47;8.85;;;3.65;;
16660;SDS011;8444;52.012;5.048;2023-08-20T02:23:13;17.02;;;3.92;;
16660;SDS011;8444;52.012;5.048;2023-08-20T02:25:38;6.95;;;3.35;;
16660;SDS011;8444;52.012;5.048;2023-08-20T02:28:03;9.40;;;4.28;;
16660;SDS011;8444;52.012;5.048;2023-08-20T02:30:28;9.65;;;3.42;;
16660;SDS011;8444;52.012;5.048;2023-08-20T02:32:54;5.63;;;4.03;;
16660;SDS011;8444;52.012;5.048;2023-08-20T02:35:19;6.50;;;3.70;;
16660;SDS011;8444;52.012;5.048;2023-08-20T02:37:44;8.48;;;4.50;;
16660;SDS011;8444;52.012;5.048;2023-08-20T02:40:09;8.90;;;4.10;;
16660;SDS011;8444;52.012;5.048;2023-08-20T02:42:36;9.32;;;4.32;;
16660;SDS011;8444;52.012;5.048;2023-08-20T02:45:01;11.25;;;5.40;;
16660;SDS011;8444;52.012;5.048;2023-08-20T02:47:27;9.65;;;4.43;;
16660;SDS011;8444;52.012;5.048;2023-08-20T02:49:52;9.32;;;4.10;;
16660;SDS011;8444;52.012;5.048;2023-08-20T02:52:19;10.55;;;4.03;;
16660;SDS011;8444;52.012;5.048;2023-08-20T02:54:44;7.38;;;3.92;;
16660;SDS011;8444;52.012;5.048;2023-08-20T02:57:09;8.98;;;4.13;;
16660;SDS011;8444;52.012;5.048;2023-08-20T02:59:35;15.30;;;4.35;;
16660;SDS011;8444;52.012;5.048;2023-08-20T03:02:00;10.55;;;4.93;;
16660;SDS011;8444;52.012;5.048;2023-08-20T03:04:25;12.52;;;4.60;;
16660;SDS011;8444;52.012;5.048;2023-08-20T03:06:50;7.18;;;3.92;;
16660;SDS011;8444;52.012;5.048;2023-08-20T03:09:15;9.63;;;4.53;;
16660;SDS011;8444;52.012;5.048;2023-08-20T03:11:41;10.10;;;4.03;;
16660;SDS011;8444;52.012;5.048;2023-08-20T03:14:06;9.02;;;3.67;;
16660;SDS011;8444;52.012;5.048;2023-08-20T03:16:31;9.02;;;4.25;;
16660;SDS011;8444;52.012;5.048;2023-08-20T03:18:57;10.52;;;4.95;;
16660;SDS011;8444;52.012;5.048;2023-08-20T03:21:22;9.90;;;4.38;;
16660;SDS011;8444;52.012;5.048;2023-08-20T03:23:47;11.35;;;4.72;;
16660;SDS011;8444;52.012;5.048;2023-08-20T03:26:12;9.30;;;5.07;;
16660;SDS011;8444;52.012;5.048;2023-08-20T03:28:37;12.93;;;4.47;;
16660;SDS011;8444;52.012;5.048;2023-08-20T03:31:03;10.50;;;4.05;;
16660;SDS011;8444;52.012;5.048;2023-08-20T03:33:28;10.27;;;4.28;;
16660;SDS011;8444;52.012;5.048;2023-08-20T03:35:53;8.70;;;4.65;;
16660;SDS011;8444;52.012;5.048;2023-08-20T03:38:18;8.93;;;4.50;;
16660;SDS011;8444;52.012;5.048;2023-08-20T03:40:44;7.75;;;5.13;;
16660;SDS011;8444;52.012;5.048;2023-08-20T03:43:10;7.03;;;3.97;;
16660;SDS011;8444;52.012;5.048;2023-08-20T03:45:35;9.82;;;3.38;;
16660;SDS011;8444;52.012;5.048;2023-08-20T03:48:00;17.27;;;4.75;;
16660;SDS011;8444;52.012;5.048;2023-08-20T03:50:26;10.85;;;4.60;;
16660;SDS011;8444;52.012;5.048;2023-08-20T03:52:51;10.45;;;4.65;;
16660;SDS011;8444;52.012;5.048;2023-08-20T03:55:16;5.88;;;3.90;;
16660;SDS011;8444;52.012;5.048;2023-08-20T03:57:41;9.18;;;4.43;;
16660;SDS011;8444;52.012;5.048;2023-08-20T04:00:06;8.57;;;4.30;;
16660;SDS011;8444;52.012;5.048;2023-08-20T04:02:34;10.18;;;4.15;;
16660;SDS011;8444;52.012;5.048;2023-08-20T04:05:00;7.72;;;3.85;;
16660;SDS011;8444;52.012;5.048;2023-08-20T04:07:25;12.65;;;4.70;;
16660;SDS011;8444;52.012;5.048;2023-08-20T04:09:50;5.10;;;2.90;;
16660;SDS011;8444;52.012;5.048;2023-08-20T04:12:15;11.90;;;4.38;;
16660;SDS011;8444;52.012;5.048;2023-08-20T04:14:40;9.32;;;4.05;;
16660;SDS011;8444;52.012;5.048;2023-08-20T04:17:06;9.85;;;3.95;;
16660;SDS011;8444;52.012;5.048;2023-08-20T04:19:31;8.02;;;3.50;;
16660;SDS011;8444;52.012;5.048;2023-08-20T04:21:56;9.98;;;4.22;;
16660;SDS011;8444;52.012;5.048;2023-08-20T04:24:21;11.85;;;3.88;;
16660;SDS011;8444;52.012;5.048;2023-08-20T04:26:47;10.45;;;4.30;;
16660;SDS011;8444;52.012;5.048;2023-08-20T04:29:12;11.55;;;4.00;;
16660;SDS011;8444;52.012;5.048;2023-08-20T04:31:37;8.52;;;4.00;;
16660;SDS011;8444;52.012;5.048;2023-08-20T04:34:02;10.48;;;3.67;;
16660;SDS011;8444;52.012;5.048;2023-08-20T04:36:27;8.65;;;4.22;;
16660;SDS011;8444;52.012;5.048;2023-08-20T04:38:53;9.85;;;4.32;;
16660;SDS011;8444;52.012;5.048;2023-08-20T04:41:18;7.60;;;3.92;;
16660;SDS011;8444;52.012;5.048;2023-08-20T04:43:43;8.85;;;4.10;;
16660;SDS011;8444;52.012;5.048;2023-08-20T04:46:08;8.43;;;4.10;;
16660;SDS011;8444;52.012;5.048;2023-08-20T04:48:34;11.52;;;4.15;;
16660;SDS011;8444;52.012;5.048;2023-08-20T04:50:59;10.38;;;3.88;;
16660;SDS011;8444;52.012;5.048;2023-08-20T04:53:25;10.73;;;4.07;;
16660;SDS011;8444;52.012;5.048;2023-08-20T04:55:50;9.65;;;4.43;;
16660;SDS011;8444;52.012;5.048;2023-08-20T04:58:15;9.10;;;4.43;;
16660;SDS011;8444;52.012;5.048;2023-08-20T05:00:41;9.32;;;4.40;;
16660;SDS011;8444;52.012;5.048;2023-08-20T05:03:07;12.25;;;4.13;;
16660;SDS011;8444;52.012;5.048;2023-08-20T05:05:32;7.82;;;3.97;;
16660;SDS011;8444;52.012;5.048;2023-08-20T05:07:57;7.88;;;4.53;;
16660;SDS011;8444;52.012;5.048;2023-08-20T05:10:22;9.95;;;4.03;;
16660;SDS011;8444;52.012;5.048;2023-08-20T05:12:47;8.43;;;3.83;;
16660;SDS011;8444;52.012;5.048;2023-08-20T05:15:13;6.57;;;4.63;;
16660;SDS011;8444;52.012;5.048;2023-08-20T05:17:38;10.43;;;5.60;;
16660;SDS011;8444;52.012;5.048;2023-08-20T05:20:04;10.90;;;4.50;;
16660;SDS011;8444;52.012;5.048;2023-08-20T05:22:30;8.35;;;4.70;;
16660;SDS011;8444;52.012;5.048;2023-08-20T05:24:55;12.63;;;4.88;;
16660;SDS011;8444;52.012;5.048;2023-08-20T05:27:20;13.57;;;4.55;;
16660;SDS011;8444;52.012;5.048;2023-08-20T05:29:45;8.57;;;4.30;;
16660;SDS011;8444;52.012;5.048;2023-08-20T05:32:10;15.77;;;5.25;;
16660;SDS011;8444;52.012;5.048;2023-08-20T05:34:36;12.32;;;4.32;;
16660;SDS011;8444;52.012;5.048;2023-08-20T05:37:01;9.15;;;4.97;;
16660;SDS011;8444;52.012;5.048;2023-08-20T05:39:26;12.25;;;4.18;;
16660;SDS011;8444;52.012;5.048;2023-08-20T05:41:55;10.38;;;3.70;;
16660;SDS011;8444;52.012;5.048;2023-08-20T05:44:20;10.77;;;4.25;;
16660;SDS011;8444;52.012;5.048;2023-08-20T05:46:45;12.32;;;6.15;;
16660;SDS011;8444;52.012;5.048;2023-08-20T05:49:12;15.75;;;4.72;;
16660;SDS011;8444;52.012;5.048;2023-08-20T05:51:37;14.02;;;4.38;;
16660;SDS011;8444;52.012;5.048;2023-08-20T05:54:02;14.23;;;4.95;;
16660;SDS011;8444;52.012;5.048;2023-08-20T05:56:28;10.57;;;3.67;;
16660;SDS011;8444;52.012;5.048;2023-08-20T05:58:53;14.82;;;4.50;;
16660;SDS011;8444;52.012;5.048;2023-08-20T06:01:18;14.52;;;3.90;;
16660;SDS011;8444;52.012;5.048;2023-08-20T06:03:43;9.20;;;4.40;;
16660;SDS011;8444;52.012;5.048;2023-08-20T06:06:08;13.20;;;3.30;;
16660;SDS011;8444;52.012;5.048;2023-08-20T06:08:34;7.97;;;3.13;;
16660;SDS011;8444;52.012;5.048;2023-08-20T06:10:59;16.08;;;3.78;;
16660;SDS011;8444;52.012;5.048;2023-08-20T06:13:24;8.00;;;3.75;;
16660;SDS011;8444;52.012;5.048;2023-08-20T06:15:49;9.05;;;3.20;;
16660;SDS011;8444;52.012;5.048;2023-08-20T06:18:14;7.60;;;3.25;;
16660;SDS011;8444;52.012;5.048;2023-08-20T06:20:40;8.50;;;3.47;;
16660;SDS011;8444;52.012;5.048;2023-08-20T06:23:05;6.75;;;2.85;;
16660;SDS011;8444;52.012;5.048;2023-08-20T06:25:30;10.50;;;2.90;;
16660;SDS011;8444;52.012;5.048;2023-08-20T06:27:56;9.05;;;2.80;;
16660;SDS011;8444;52.012;5.048;2023-08-20T06:30:21;7.55;;;2.65;;
16660;SDS011;8444;52.012;5.048;2023-08-20T06:32:46;8.40;;;2.50;;
16660;SDS011;8444;52.012;5.048;2023-08-20T06:35:11;8.38;;;2.42;;
16660;SDS011;8444;52.012;5.048;2023-08-20T06:37:38;5.45;;;2.72;;
16660;SDS011;8444;52.012;5.048;2023-08-20T06:40:03;13.25;;;3.25;;
16660;SDS011;8444;52.012;5.048;2023-08-20T06:42:29;13.45;;;2.70;;
16660;SDS011;8444;52.012;5.048;2023-08-20T06:44:54;9.05;;;3.15;;
16660;SDS011;8444;52.012;5.048;2023-08-20T06:47:19;7.75;;;2.50;;
16660;SDS011;8444;52.012;5.048;2023-08-20T06:49:44;7.25;;;2.55;;
16660;SDS011;8444;52.012;5.048;2023-08-20T06:52:10;6.50;;;2.38;;
16660;SDS011;8444;52.012;5.048;2023-08-20T06:54:35;9.07;;;2.35;;
16660;SDS011;8444;52.012;5.048;2023-08-20T06:57:00;7.82;;;2.40;;
16660;SDS011;8444;52.012;5.048;2023-08-20T06:59:26;7.50;;;2.60;;
16660;SDS011;8444;52.012;5.048;2023-08-20T07:01:52;8.32;;;2.97;;
16660;SDS011;8444;52.012;5.048;2023-08-20T07:04:17;6.43;;;2.50;;
16660;SDS011;8444;52.012;5.048;2023-08-20T07:06:42;10.25;;;2.80;;
16660;SDS011;8444;52.012;5.048;2023-08-20T07:09:08;8.98;;;2.92;;
16660;SDS011;8444;52.012;5.048;2023-08-20T07:11:34;8.52;;;2.55;;
16660;SDS011;8444;52.012;5.048;2023-08-20T07:13:59;7.30;;;2.10;;
16660;SDS011;8444;52.012;5.048;2023-08-20T07:16:24;6.47;;;2.55;;
16660;SDS011;8444;52.012;5.048;2023-08-20T07:18:49;6.30;;;2.33;;
16660;SDS011;8444;52.012;5.048;2023-08-20T07:21:14;9.68;;;2.40;;
16660;SDS011;8444;52.012;5.048;2023-08-20T07:23:40;12.45;;;2.63;;
16660;SDS011;8444;52.012;5.048;2023-08-20T07:26:06;9.95;;;2.97;;
16660;SDS011;8444;52.012;5.048;2023-08-20T07:28:31;4.80;;;1.73;;
16660;SDS011;8444;52.012;5.048;2023-08-20T07:31:15;11.52;;;2.65;;
16660;SDS011;8444;52.012;5.048;2023-08-20T07:33:40;8.32;;;2.60;;
16660;SDS011;8444;52.012;5.048;2023-08-20T07:36:06;7.43;;;2.47;;
16660;SDS011;8444;52.012;5.048;2023-08-20T07:38:31;8.05;;;1.88;;
16660;SDS011;8444;52.012;5.048;2023-08-20T07:40:56;5.72;;;2.05;;
16660;SDS011;8444;52.012;5.048;2023-08-20T07:43:21;6.18;;;2.03;;
16660;SDS011;8444;52.012;5.048;2023-08-20T07:45:47;6.97;;;2.25;;
16660;SDS011;8444;52.012;5.048;2023-08-20T07:48:12;5.30;;;1.90;;
16660;SDS011;8444;52.012;5.048;2023-08-20T07:50:38;9.52;;;2.65;;
16660;SDS011;8444;52.012;5.048;2023-08-20T07:53:03;10.63;;;1.98;;
16660;SDS011;8444;52.012;5.048;2023-08-20T07:55:28;6.05;;;2.05;;
16660;SDS011;8444;52.012;5.048;2023-08-20T07:57:53;6.68;;;1.75;;
16660;SDS011;8444;52.012;5.048;2023-08-20T08:00:19;9.27;;;2.13;;
16660;SDS011;8444;52.012;5.048;2023-08-20T08:02:44;9.52;;;2.13;;
16660;SDS011;8444;52.012;5.048;2023-08-20T08:05:09;11.77;;;2.28;;
16660;SDS011;8444;52.012;5.048;2023-08-20T08:07:34;10.02;;;2.58;;
16660;SDS011;8444;52.012;5.048;2023-08-20T08:10:00;7.13;;;2.20;;
16660;SDS011;8444;52.012;5.048;2023-08-20T08:12:25;7.30;;;2.40;;
16660;SDS011;8444;52.012;5.048;2023-08-20T08:14:50;6.75;;;2.03;;
16660;SDS011;8444;52.012;5.048;2023-08-20T08:17:15;5.73;;;1.90;;
16660;SDS011;8444;52.012;5.048;2023-08-20T08:19:40;6.65;;;1.52;;
16660;SDS011;8444;52.012;5.048;2023-08-20T08:22:06;5.43;;;2.33;;
16660;SDS011;8444;52.012;5.048;2023-08-20T08:24:31;5.22;;;2.00;;
16660;SDS011;8444;52.012;5.048;2023-08-20T08:26:56;6.10;;;1.83;;
16660;SDS011;8444;52.012;5.048;2023-08-20T08:29:21;5.87;;;1.87;;
16660;SDS011;8444;52.012;5.048;2023-08-20T08:31:47;4.40;;;1.48;;
16660;SDS011;8444;52.012;5.048;2023-08-20T08:34:12;4.70;;;1.50;;
16660;SDS011;8444;52.012;5.048;2023-08-20T08:36:37;4.47;;;1.45;;
16660;SDS011;8444;52.012;5.048;2023-08-20T08:39:02;5.35;;;1.40;;
16660;SDS011;8444;52.012;5.048;2023-08-20T08:41:27;5.88;;;1.65;;
16660;SDS011;8444;52.012;5.048;2023-08-20T08:43:53;5.93;;;1.45;;
16660;SDS011;8444;52.012;5.048;2023-08-20T08:46:20;3.97;;;1.00;;
16660;SDS011;8444;52.012;5.048;2023-08-20T08:48:45;4.78;;;1.38;;
16660;SDS011;8444;52.012;5.048;2023-08-20T08:51:12;6.72;;;1.63;;
16660;SDS011;8444;52.012;5.048;2023-08-20T08:53:38;4.75;;;1.45;;
16660;SDS011;8444;52.012;5.048;2023-08-20T08:56:03;4.95;;;1.10;;
16660;SDS011;8444;52.012;5.048;2023-08-20T08:58:30;5.35;;;1.50;;
16660;SDS011;8444;52.012;5.048;2023-08-20T09:00:55;4.40;;;1.52;;
16660;SDS011;8444;52.012;5.048;2023-08-20T09:03:21;2.53;;;0.93;;
16660;SDS011;8444;52.012;5.048;2023-08-20T09:05:50;2.90;;;0.80;;
16660;SDS011;8444;52.012;5.048;2023-08-20T09:08:22;4.57;;;1.40;;
16660;SDS011;8444;52.012;5.048;2023-08-20T09:10:51;2.05;;;1.27;;
16660;SDS011;8444;52.012;5.048;2023-08-20T09:13:17;6.22;;;1.50;;
16660;SDS011;8444;52.012;5.048;2023-08-20T09:15:42;4.53;;;1.17;;
16660;SDS011;8444;52.012;5.048;2023-08-20T09:18:10;4.30;;;0.90;;
16660;SDS011;8444;52.012;5.048;2023-08-20T09:20:36;4.38;;;0.98;;
16660;SDS011;8444;52.012;5.048;2023-08-20T09:23:01;5.50;;;1.23;;
16660;SDS011;8444;52.012;5.048;2023-08-20T09:25:26;4.63;;;1.00;;
16660;SDS011;8444;52.012;5.048;2023-08-20T09:27:53;4.37;;;1.10;;
16660;SDS011;8444;52.012;5.048;2023-08-20T09:30:18;2.67;;;0.98;;
16660;SDS011;8444;52.012;5.048;2023-08-20T09:33:02;8.13;;;1.67;;
16660;SDS011;8444;52.012;5.048;2023-08-20T09:35:27;3.50;;;0.73;;
16660;SDS011;8444;52.012;5.048;2023-08-20T09:37:58;3.40;;;1.27;;
16660;SDS011;8444;52.012;5.048;2023-08-20T09:40:23;6.03;;;1.48;;
16660;SDS011;8444;52.012;5.048;2023-08-20T09:42:48;1.98;;;0.82;;
16660;SDS011;8444;52.012;5.048;2023-08-20T09:45:14;1.65;;;0.63;;
16660;SDS011;8444;52.012;5.048;2023-08-20T09:47:40;5.15;;;0.88;;
16660;SDS011;8444;52.012;5.048;2023-08-20T09:50:06;2.75;;;0.80;;
16660;SDS011;8444;52.012;5.048;2023-08-20T09:52:37;3.42;;;0.77;;
16660;SDS011;8444;52.012;5.048;2023-08-20T09:55:06;6.82;;;1.27;;
16660;SDS011;8444;52.012;5.048;2023-08-20T09:57:34;7.45;;;0.75;;
16660;SDS011;8444;52.012;5.048;2023-08-20T10:00:00;2.17;;;0.60;;
16660;SDS011;8444;52.012;5.048;2023-08-20T10:02:26;2.78;;;0.60;;
16660;SDS011;8444;52.012;5.048;2023-08-20T10:04:51;4.75;;;0.80;;
16660;SDS011;8444;52.012;5.048;2023-08-20T10:07:17;1.85;;;0.60;;
16660;SDS011;8444;52.012;5.048;2023-08-20T10:09:42;2.05;;;0.60;;
16660;SDS011;8444;52.012;5.048;2023-08-20T10:12:11;1.70;;;0.75;;
16660;SDS011;8444;52.012;5.048;2023-08-20T10:14:36;6.53;;;0.73;;
16660;SDS011;8444;52.012;5.048;2023-08-20T10:17:06;5.15;;;0.82;;
16660;SDS011;8444;52.012;5.048;2023-08-20T10:19:31;1.83;;;0.38;;
16660;SDS011;8444;52.012;5.048;2023-08-20T10:21:56;2.78;;;0.63;;
16660;SDS011;8444;52.012;5.048;2023-08-20T10:24:23;2.97;;;1.05;;
16660;SDS011;8444;52.012;5.048;2023-08-20T10:26:48;4.68;;;1.15;;
16660;SDS011;8444;52.012;5.048;2023-08-20T10:29:37;1.17;;;0.60;;
16660;SDS011;8444;52.012;5.048;2023-08-20T10:32:09;3.67;;;1.00;;
16660;SDS011;8444;52.012;5.048;2023-08-20T10:34:38;4.40;;;0.65;;
16660;SDS011;8444;52.012;5.048;2023-08-20T10:37:13;3.38;;;0.60;;
16660;SDS011;8444;52.012;5.048;2023-08-20T10:39:39;3.33;;;0.65;;
16660;SDS011;8444;52.012;5.048;2023-08-20T10:42:25;3.78;;;0.63;;
16660;SDS011;8444;52.012;5.048;2023-08-20T10:44:58;0.85;;;0.70;;
16660;SDS011;8444;52.012;5.048;2023-08-20T10:48:01;4.40;;;0.60;;
16660;SDS011;8444;52.012;5.048;2023-08-20T10:50:20;2.72;;;1.10;;
16660;SDS011;8444;52.012;5.048;2023-08-20T10:52:49;2.00;;;0.80;;
16660;SDS011;8444;52.012;5.048;2023-08-20T10:55:14;3.97;;;0.90;;
16660;SDS011;8444;52.012;5.048;2023-08-20T10:57:40;2.00;;;1.05;;
16660;SDS011;8444;52.012;5.048;2023-08-20T11:00:05;3.60;;;0.50;;
16660;SDS011;8444;52.012;5.048;2023-08-20T11:02:35;1.27;;;0.50;;
16660;SDS011;8444;52.012;5.048;2023-08-20T11:05:02;2.30;;;0.70;;
16660;SDS011;8444;52.012;5.048;2023-08-20T11:07:27;2.00;;;0.43;;
16660;SDS011;8444;52.012;5.048;2023-08-20T11:09:55;5.00;;;1.00;;
16660;SDS011;8444;52.012;5.048;2023-08-20T11:12:21;4.75;;;0.80;;
16660;SDS011;8444;52.012;5.048;2023-08-20T11:14:46;1.10;;;0.32;;
16660;SDS011;8444;52.012;5.048;2023-08-20T11:17:11;2.37;;;0.63;;
16660;SDS011;8444;52.012;5.048;2023-08-20T11:19:37;4.75;;;1.70;;
16660;SDS011;8444;52.012;5.048;2023-08-20T11:22:02;4.22;;;0.90;;
16660;SDS011;8444;52.012;5.048;2023-08-20T11:24:30;2.47;;;0.70;;
16660;SDS011;8444;52.012;5.048;2023-08-20T11:26:55;2.05;;;0.60;;
16660;SDS011;8444;52.012;5.048;2023-08-20T11:29:21;2.47;;;0.60;;
16660;SDS011;8444;52.012;5.048;2023-08-20T11:31:46;3.33;;;1.05;;
16660;SDS011;8444;52.012;5.048;2023-08-20T11:34:12;3.00;;;0.45;;
16660;SDS011;8444;52.012;5.048;2023-08-20T11:36:38;1.65;;;0.70;;
16660;SDS011;8444;52.012;5.048;2023-08-20T11:39:04;2.40;;;0.70;;
16660;SDS011;8444;52.012;5.048;2023-08-20T11:41:29;2.58;;;0.50;;
16660;SDS011;8444;52.012;5.048;2023-08-20T11:43:55;3.55;;;1.15;;
16660;SDS011;8444;52.012;5.048;2023-08-20T11:46:22;2.75;;;0.80;;
16660;SDS011;8444;52.012;5.048;2023-08-20T11:49:05;2.67;;;0.80;;
16660;SDS011;8444;52.012;5.048;2023-08-20T11:51:38;1.98;;;0.60;;
16660;SDS011;8444;52.012;5.048;2023-08-20T11:54:07;4.70;;;1.30;;
16660;SDS011;8444;52.012;5.048;2023-08-20T11:56:33;2.88;;;0.77;;
16660;SDS011;8444;52.012;5.048;2023-08-20T11:58:59;4.03;;;0.88;;
16660;SDS011;8444;52.012;5.048;2023-08-20T12:01:24;3.78;;;1.08;;
16660;SDS011;8444;52.012;5.048;2023-08-20T12:03:49;3.55;;;0.85;;
16660;SDS011;8444;52.012;5.048;2023-08-20T12:06:21;2.53;;;0.83;;
16660;SDS011;8444;52.012;5.048;2023-08-20T12:08:50;3.63;;;1.30;;
16660;SDS011;8444;52.012;5.048;2023-08-20T12:11:15;4.20;;;0.83;;
16660;SDS011;8444;52.012;5.048;2023-08-20T12:13:40;5.20;;;0.80;;
16660;SDS011;8444;52.012;5.048;2023-08-20T12:16:05;3.78;;;0.82;;
16660;SDS011;8444;52.012;5.048;2023-08-20T12:18:31;2.05;;;0.68;;
16660;SDS011;8444;52.012;5.048;2023-08-20T12:20:56;2.45;;;0.70;;
16660;SDS011;8444;52.012;5.048;2023-08-20T12:23:21;4.13;;;0.98;;
16660;SDS011;8444;52.012;5.048;2023-08-20T12:25:50;2.67;;;0.88;;
16660;SDS011;8444;52.012;5.048;2023-08-20T12:28:15;3.15;;;0.60;;
16660;SDS011;8444;52.012;5.048;2023-08-20T12:30:41;3.15;;;0.88;;
16660;SDS011;8444;52.012;5.048;2023-08-20T12:33:06;3.63;;;1.13;;
16660;SDS011;8444;52.012;5.048;2023-08-20T12:35:31;4.87;;;1.30;;
16660;SDS011;8444;52.012;5.048;2023-08-20T12:37:57;0.97;;;0.67;;
16660;SDS011;8444;52.012;5.048;2023-08-20T12:40:22;3.10;;;0.63;;
16660;SDS011;8444;52.012;5.048;2023-08-20T12:42:47;4.47;;;0.97;;
16660;SDS011;8444;52.012;5.048;2023-08-20T12:45:12;3.03;;;0.90;;
16660;SDS011;8444;52.012;5.048;2023-08-20T12:47:38;2.42;;;0.68;;
16660;SDS011;8444;52.012;5.048;2023-08-20T12:50:03;1.77;;;0.65;;
16660;SDS011;8444;52.012;5.048;2023-08-20T12:52:30;4.60;;;1.13;;
16660;SDS011;8444;52.012;5.048;2023-08-20T12:54:55;2.42;;;0.70;;
16660;SDS011;8444;52.012;5.048;2023-08-20T12:57:20;4.15;;;1.02;;
16660;SDS011;8444;52.012;5.048;2023-08-20T12:59:45;3.58;;;1.48;;
16660;SDS011;8444;52.012;5.048;2023-08-20T13:02:11;2.00;;;0.70;;
16660;SDS011;8444;52.012;5.048;2023-08-20T13:04:37;2.67;;;0.90;;
16660;SDS011;8444;52.012;5.048;2023-08-20T13:07:03;1.90;;;0.80;;
16660;SDS011;8444;52.012;5.048;2023-08-20T13:09:28;3.53;;;1.35;;
16660;SDS011;8444;52.012;5.048;2023-08-20T13:11:53;4.85;;;1.13;;
16660;SDS011;8444;52.012;5.048;2023-08-20T13:14:20;1.88;;;0.65;;
16660;SDS011;8444;52.012;5.048;2023-08-20T13:16:46;4.80;;;1.15;;
16660;SDS011;8444;52.012;5.048;2023-08-20T13:19:11;3.33;;;0.93;;
16660;SDS011;8444;52.012;5.048;2023-08-20T13:21:36;2.83;;;0.95;;
16660;SDS011;8444;52.012;5.048;2023-08-20T13:24:01;4.00;;;1.00;;
16660;SDS011;8444;52.012;5.048;2023-08-20T13:26:27;3.30;;;0.93;;
16660;SDS011;8444;52.012;5.048;2023-08-20T13:28:52;4.30;;;1.17;;
16660;SDS011;8444;52.012;5.048;2023-08-20T13:31:17;5.00;;;1.07;;
16660;SDS011;8444;52.012;5.048;2023-08-20T13:33:43;2.43;;;0.57;;
16660;SDS011;8444;52.012;5.048;2023-08-20T13:36:08;2.47;;;0.60;;
16660;SDS011;8444;52.012;5.048;2023-08-20T13:38:33;3.28;;;0.82;;
16660;SDS011;8444;52.012;5.048;2023-08-20T13:40:59;2.72;;;0.85;;
16660;SDS011;8444;52.012;5.048;2023-08-20T13:43:24;3.20;;;1.00;;
16660;SDS011;8444;52.012;5.048;2023-08-20T13:45:49;2.60;;;0.70;;
16660;SDS011;8444;52.012;5.048;2023-08-20T13:48:14;2.77;;;0.60;;
16660;SDS011;8444;52.012;5.048;2023-08-20T13:50:40;3.03;;;0.73;;
16660;SDS011;8444;52.012;5.048;2023-08-20T13:53:05;4.40;;;0.83;;
16660;SDS011;8444;52.012;5.048;2023-08-20T13:55:30;2.92;;;0.75;;
16660;SDS011;8444;52.012;5.048;2023-08-20T13:57:56;1.83;;;0.73;;
16660;SDS011;8444;52.012;5.048;2023-08-20T14:00:21;3.88;;;0.98;;
16660;SDS011;8444;52.012;5.048;2023-08-20T14:02:47;4.13;;;1.30;;
16660;SDS011;8444;52.012;5.048;2023-08-20T14:05:12;2.55;;;0.75;;
16660;SDS011;8444;52.012;5.048;2023-08-20T14:07:37;2.17;;;1.13;;
16660;SDS011;8444;52.012;5.048;2023-08-20T14:10:03;2.75;;;0.90;;
16660;SDS011;8444;52.012;5.048;2023-08-20T14:12:31;4.63;;;1.08;;
16660;SDS011;8444;52.012;5.048;2023-08-20T14:14:57;2.07;;;0.70;;
16660;SDS011;8444;52.012;5.048;2023-08-20T14:17:22;3.60;;;0.90;;
16660;SDS011;8444;52.012;5.048;2023-08-20T14:19:47;6.22;;;1.10;;
16660;SDS011;8444;52.012;5.048;2023-08-20T14:22:12;4.25;;;1.45;;
16660;SDS011;8444;52.012;5.048;2023-08-20T14:24:37;3.17;;;0.80;;
16660;SDS011;8444;52.012;5.048;2023-08-20T14:27:03;3.43;;;0.80;;
16660;SDS011;8444;52.012;5.048;2023-08-20T14:29:28;2.85;;;0.88;;
16660;SDS011;8444;52.012;5.048;2023-08-20T14:31:53;6.82;;;1.13;;
16660;SDS011;8444;52.012;5.048;2023-08-20T14:34:18;3.50;;;1.00;;
16660;SDS011;8444;52.012;5.048;2023-08-20T14:36:44;3.75;;;0.82;;
16660;SDS011;8444;52.012;5.048;2023-08-20T14:39:09;5.30;;;1.23;;
16660;SDS011;8444;52.012;5.048;2023-08-20T14:41:34;3.97;;;0.80;;
16660;SDS011;8444;52.012;5.048;2023-08-20T14:44:00;5.00;;;0.98;;
16660;SDS011;8444;52.012;5.048;2023-08-20T14:46:25;3.63;;;0.88;;
16660;SDS011;8444;52.012;5.048;2023-08-20T14:48:50;2.10;;;0.67;;
16660;SDS011;8444;52.012;5.048;2023-08-20T14:51:15;5.93;;;1.00;;
16660;SDS011;8444;52.012;5.048;2023-08-20T14:53:41;3.22;;;1.30;;
16660;SDS011;8444;52.012;5.048;2023-08-20T14:56:06;5.10;;;1.23;;
16660;SDS011;8444;52.012;5.048;2023-08-20T14:58:31;2.65;;;0.90;;
16660;SDS011;8444;52.012;5.048;2023-08-20T15:00:57;6.65;;;0.90;;